createdAt,value
2023-04-26T00:04:15.878Z,6.38
2023-04-26T00:09:17.907Z,6.00
2023-04-26T00:14:19.493Z,6.35
2023-04-26T00:19:21.018Z,5.90
2023-04-26T00:24:22.555Z,6.47
2023-04-26T00:29:24.127Z,5.82
2023-04-26T00:34:25.666Z,6.82
2023-04-26T00:39:27.212Z,5.18
2023-04-26T00:44:28.746Z,5.50
2023-04-26T00:49:30.277Z,5.47
2023-04-26T00:54:31.830Z,6.35
2023-04-26T00:59:33.723Z,6.25
2023-04-26T01:04:38.480Z,5.65
2023-04-26T01:09:40.083Z,5.63
2023-04-26T01:14:41.630Z,5.40
2023-04-26T01:19:43.230Z,5.03
2023-04-26T01:24:44.779Z,5.82
2023-04-26T01:29:46.432Z,5.13
2023-04-26T01:34:47.950Z,5.20
2023-04-26T01:39:49.490Z,4.88
2023-04-26T01:44:51.143Z,4.72
2023-04-26T01:49:55.070Z,5.13
2023-04-26T01:54:56.695Z,5.10
2023-04-26T01:59:58.314Z,5.03
2023-04-26T02:04:59.946Z,5.38
2023-04-26T02:10:01.567Z,5.13
2023-04-26T02:15:03.056Z,5.75
2023-04-26T02:20:05.585Z,6.15
2023-04-26T02:25:07.234Z,5.63
2023-04-26T02:30:08.719Z,4.88
2023-04-26T02:35:10.237Z,5.30
2023-04-26T02:40:11.740Z,5.30
2023-04-26T02:45:13.252Z,5.20
2023-04-26T02:50:14.792Z,4.97
2023-04-26T02:55:16.515Z,4.72
2023-04-26T03:00:17.984Z,4.03
2023-04-26T03:05:19.450Z,4.25
2023-04-26T03:10:20.909Z,3.70
2023-04-26T03:15:22.570Z,3.58
2023-04-26T03:20:24.105Z,3.60
2023-04-26T03:25:25.548Z,3.55
2023-04-26T03:30:27.233Z,3.83
2023-04-26T03:35:28.880Z,3.53
2023-04-26T03:40:30.408Z,3.90
2023-04-26T03:45:31.907Z,4.18
2023-04-26T03:50:33.602Z,4.72
2023-04-26T03:55:35.227Z,3.88
2023-04-26T04:00:36.669Z,3.78
2023-04-26T04:05:38.468Z,4.47
2023-04-26T04:10:42.203Z,3.40
2023-04-26T04:15:44.629Z,4.10
2023-04-26T04:20:46.463Z,5.43
2023-04-26T04:25:48.156Z,4.47
2023-04-26T04:30:49.700Z,3.42
2023-04-26T04:35:51.174Z,3.72
2023-04-26T04:40:52.637Z,3.25
2023-04-26T04:45:54.185Z,2.92
2023-04-26T04:50:55.771Z,2.90
2023-04-26T04:55:57.301Z,3.13
2023-04-26T05:00:59.042Z,2.70
2023-04-26T05:06:00.525Z,3.15
2023-04-26T05:11:02.025Z,2.25
2023-04-26T05:16:03.749Z,2.78
2023-04-26T05:21:05.332Z,2.30
2023-04-26T05:26:06.828Z,2.60
2023-04-26T05:31:10.604Z,2.58
2023-04-26T05:36:12.945Z,2.28
2023-04-26T05:41:14.398Z,1.90
2023-04-26T05:46:15.910Z,2.35
2023-04-26T05:51:17.412Z,2.15
2023-04-26T05:56:18.871Z,2.08
2023-04-26T06:01:20.309Z,1.80
2023-04-26T06:06:21.806Z,1.77
2023-04-26T06:11:23.308Z,3.67
2023-04-26T06:16:24.986Z,1.90
2023-04-26T06:21:26.688Z,1.92
2023-04-26T06:26:28.167Z,2.10
2023-04-26T06:31:29.946Z,2.08
2023-04-26T06:36:31.755Z,2.03
2023-04-26T06:41:33.432Z,2.13
2023-04-26T06:46:35.065Z,1.80
2023-04-26T06:51:39.826Z,1.85
2023-04-26T06:56:41.416Z,1.45
2023-04-26T07:01:43.331Z,1.42
2023-04-26T07:06:45.224Z,1.40
2023-04-26T07:11:46.840Z,1.30
2023-04-26T07:16:48.364Z,1.40
2023-04-26T07:22:10.159Z,1.48
2023-04-26T07:27:18.264Z,1.35
2023-04-26T07:32:19.938Z,1.40
2023-04-26T07:37:21.600Z,1.25
2023-04-26T07:42:24.567Z,1.77
2023-04-26T07:47:26.178Z,1.00
2023-04-26T07:52:27.697Z,1.10
2023-04-26T07:57:29.373Z,1.40
2023-04-26T08:02:43.557Z,1.20
2023-04-26T08:07:46.389Z,1.08
2023-04-26T08:12:48.022Z,1.40
2023-04-26T08:17:49.518Z,1.00
2023-04-26T08:22:51.077Z,1.00
2023-04-26T08:27:52.708Z,0.82
2023-04-26T08:32:54.500Z,1.35
2023-04-26T08:37:58.180Z,1.38
2023-04-26T08:42:59.850Z,1.10
2023-04-26T08:48:03.231Z,1.15
2023-04-26T08:53:06.154Z,1.00
2023-04-26T08:58:07.673Z,1.23
2023-04-26T09:03:09.412Z,1.23
2023-04-26T09:08:12.817Z,0.90
2023-04-26T09:13:15.113Z,1.02
2023-04-26T09:18:35.067Z,1.10
2023-04-26T09:23:56.826Z,1.27
2023-04-26T09:28:58.851Z,1.02
2023-04-26T09:34:00.670Z,2.92
2023-04-26T09:39:20.732Z,1.00
2023-04-26T09:44:40.845Z,1.60
2023-04-26T09:50:01.344Z,1.15
2023-04-26T09:55:34.739Z,1.20
2023-04-26T10:00:55.242Z,0.88
2023-04-26T10:06:15.328Z,0.90
2023-04-26T10:11:35.546Z,1.20
2023-04-26T10:16:37.172Z,1.70
2023-04-26T10:21:38.735Z,1.35
2023-04-26T10:26:40.402Z,2.10
2023-04-26T10:31:42.108Z,1.60
2023-04-26T10:36:43.774Z,1.10
2023-04-26T10:41:45.358Z,0.88
2023-04-26T10:46:47.070Z,1.38
2023-04-26T10:51:48.633Z,1.10
2023-04-26T10:56:50.098Z,1.20
2023-04-26T11:01:51.837Z,1.08
2023-04-26T11:06:53.491Z,1.10
2023-04-26T11:11:55.161Z,1.30
2023-04-26T11:16:56.832Z,1.40
2023-04-26T11:21:58.653Z,1.38
2023-04-26T11:27:00.215Z,1.40
2023-04-26T11:32:01.822Z,1.63
2023-04-26T11:37:04.553Z,1.13
2023-04-26T11:42:06.119Z,1.20
2023-04-26T11:47:07.920Z,1.08
2023-04-26T11:52:09.595Z,1.15
2023-04-26T11:57:11.132Z,1.20
2023-04-26T12:02:12.723Z,0.90
2023-04-26T12:07:14.631Z,0.90
2023-04-26T12:12:16.458Z,1.25
2023-04-26T12:17:18.097Z,1.02
2023-04-26T12:22:19.957Z,1.00
2023-04-26T12:27:24.157Z,1.40
2023-04-26T12:32:25.830Z,0.90
2023-04-26T12:37:27.528Z,1.00
2023-04-26T12:42:29.438Z,1.40
2023-04-26T12:47:31.413Z,1.17
2023-04-26T12:52:33.660Z,1.02
2023-04-26T12:57:53.824Z,1.25
2023-04-26T13:03:14.351Z,0.90
2023-04-26T13:08:30.076Z,0.98
2023-04-26T13:14:04.376Z,1.00
2023-04-26T13:19:29.218Z,0.85
2023-04-26T13:24:49.078Z,1.48
2023-04-26T13:30:11.628Z,1.10
2023-04-26T13:35:31.264Z,1.00
2023-04-26T13:40:51.241Z,1.20
2023-04-26T13:46:11.270Z,1.80
2023-04-26T13:51:13.236Z,1.30
2023-04-26T13:56:14.735Z,1.30
2023-04-26T14:01:16.472Z,1.27
2023-04-26T14:06:18.151Z,1.30
2023-04-26T14:11:19.765Z,1.20
2023-04-26T14:16:21.519Z,1.10
2023-04-26T14:21:23.066Z,1.13
2023-04-26T14:26:24.682Z,1.30
2023-04-26T14:31:26.465Z,1.25
2023-04-26T14:36:28.157Z,1.23
2023-04-26T14:41:29.747Z,1.20
2023-04-26T14:46:31.502Z,1.13
2023-04-26T14:51:33.089Z,1.55
2023-04-26T14:56:34.790Z,1.58
2023-04-26T15:01:36.494Z,1.58
2023-04-26T15:06:38.030Z,1.33
2023-04-26T15:11:39.836Z,1.40
2023-04-26T15:16:41.471Z,2.05
2023-04-26T15:21:43.134Z,1.60
2023-04-26T15:26:44.787Z,1.63
2023-04-26T15:31:46.515Z,1.10
2023-04-26T15:36:48.124Z,1.30
2023-04-26T15:41:49.692Z,1.30
2023-04-26T15:46:51.166Z,2.00
2023-04-26T15:51:52.841Z,1.75
2023-04-26T15:56:54.313Z,1.50
2023-04-26T16:01:56.007Z,1.38
2023-04-26T16:06:57.654Z,2.15
2023-04-26T16:11:59.211Z,1.70
2023-04-26T16:17:00.917Z,1.50
2023-04-26T16:22:02.590Z,1.33
2023-04-26T16:27:04.242Z,1.60
2023-04-26T16:32:05.916Z,1.20
2023-04-26T16:37:07.458Z,1.40
2023-04-26T16:42:08.958Z,1.67
2023-04-26T16:47:10.608Z,1.77
2023-04-26T16:52:12.300Z,1.95
2023-04-26T16:57:14.196Z,1.50
2023-04-26T17:02:15.821Z,2.08
2023-04-26T17:07:17.627Z,2.40
2023-04-26T17:12:19.601Z,2.47
2023-04-26T17:17:21.072Z,2.40
2023-04-26T17:22:22.596Z,2.45
2023-04-26T17:27:24.272Z,2.30
2023-04-26T17:32:26.018Z,3.20
2023-04-26T17:37:27.632Z,3.10
2023-04-26T17:42:29.287Z,3.30
2023-04-26T17:47:30.838Z,3.15
2023-04-26T17:52:32.683Z,3.67
2023-04-26T17:57:34.323Z,4.20
2023-04-26T18:02:36.184Z,4.75
2023-04-26T18:07:37.971Z,4.90
2023-04-26T18:12:39.645Z,3.30
2023-04-26T18:17:41.384Z,3.63
2023-04-26T18:22:42.964Z,3.03
2023-04-26T18:27:44.641Z,3.13
2023-04-26T18:32:46.381Z,3.20
2023-04-26T18:37:47.988Z,4.03
2023-04-26T18:42:49.668Z,5.43
2023-04-26T18:47:52.557Z,4.25
2023-04-26T18:52:57.016Z,2.90
2023-04-26T18:57:58.660Z,4.28
2023-04-26T19:03:00.453Z,4.28
2023-04-26T19:08:02.125Z,4.40
2023-04-26T19:13:03.569Z,4.63
2023-04-26T19:18:05.124Z,5.40
2023-04-26T19:23:06.725Z,5.80
2023-04-26T19:28:08.176Z,6.88
2023-04-26T19:33:09.855Z,6.20
2023-04-26T19:38:11.433Z,5.20
2023-04-26T19:43:13.083Z,5.40
2023-04-26T19:48:14.800Z,6.32
2023-04-26T19:53:16.488Z,6.53
2023-04-26T19:58:18.162Z,6.90
2023-04-26T20:03:19.925Z,8.25
2023-04-26T20:08:21.739Z,6.03
2023-04-26T20:13:23.421Z,6.43
2023-04-26T20:18:25.134Z,6.50
2023-04-26T20:23:26.793Z,8.32
2023-04-26T20:28:28.418Z,8.23
2023-04-26T20:33:29.914Z,7.65
2023-04-26T20:38:33.047Z,8.13
2023-04-26T20:43:34.676Z,6.82
2023-04-26T20:48:36.365Z,7.43
2023-04-26T20:53:37.807Z,8.07
2023-04-26T20:58:39.388Z,5.88
2023-04-26T21:03:40.923Z,4.28
2023-04-26T21:08:42.756Z,4.97
2023-04-26T21:13:44.415Z,5.22
2023-04-26T21:18:46.087Z,5.20
2023-04-26T21:23:47.756Z,5.50
2023-04-26T21:28:49.431Z,6.15
2023-04-26T21:33:51.099Z,6.40
2023-04-26T21:38:52.780Z,5.80
2023-04-26T21:43:54.428Z,7.78
2023-04-26T21:48:55.906Z,9.93
2023-04-26T21:53:57.478Z,13.80
2023-04-26T21:58:59.160Z,8.50
2023-04-26T22:04:00.961Z,7.57
2023-04-26T22:09:02.481Z,7.22
2023-04-26T22:14:04.116Z,7.25
2023-04-26T22:19:05.813Z,7.57
2023-04-26T22:24:07.493Z,8.02
2023-04-26T22:29:09.372Z,7.72
2023-04-26T22:34:11.147Z,7.40
2023-04-26T22:39:13.185Z,6.53
2023-04-26T22:44:15.104Z,7.57
2023-04-26T22:49:17.896Z,6.60
2023-04-26T22:54:19.364Z,8.77
2023-04-26T22:59:21.935Z,8.43
2023-04-26T23:04:23.669Z,7.57
2023-04-26T23:09:25.317Z,7.30
2023-04-26T23:14:27.243Z,7.13
2023-04-26T23:19:29.241Z,7.15
2023-04-26T23:24:30.933Z,7.93
2023-04-26T23:29:32.602Z,7.03
2023-04-26T23:34:34.082Z,7.53
2023-04-26T23:39:35.657Z,7.00
2023-04-26T23:44:37.309Z,6.50
2023-04-26T23:49:38.984Z,6.68
2023-04-26T23:54:40.645Z,6.88
2023-04-26T23:59:42.319Z,6.97
